createdAt,value
2022-08-01T00:02:00.871Z,100755.06
2022-08-01T00:04:27.643Z,100771.06
2022-08-01T00:06:54.180Z,100776.53
2022-08-01T00:09:24.097Z,100762.66
2022-08-01T00:11:59.711Z,100797.00
2022-08-01T00:14:32.685Z,100776.84
2022-08-01T00:17:05.126Z,100767.84
2022-08-01T00:19:33.948Z,100766.25
2022-08-01T00:22:00.675Z,100784.91
2022-08-01T00:24:27.499Z,100770.50
2022-08-01T00:26:54.081Z,100763.63
2022-08-01T00:30:04.699Z,100717.22
2022-08-01T00:32:07.878Z,100774.22
2022-08-01T00:34:34.977Z,100788.88
2022-08-01T00:37:01.586Z,100746.53
2022-08-01T00:39:28.118Z,100797.16
2022-08-01T00:41:59.410Z,100792.78
2022-08-01T00:44:27.373Z,100793.72
2022-08-01T00:46:54.137Z,100754.16
2022-08-01T00:49:20.823Z,100797.41
2022-08-01T00:51:47.471Z,100751.38
2022-08-01T00:54:16.655Z,100775.56
2022-08-01T00:56:44.028Z,100788.88
2022-08-01T00:59:12.534Z,100776.25
2022-08-01T01:01:46.424Z,100715.91
2022-08-01T01:04:13.360Z,100793.19
2022-08-01T01:06:54.545Z,100786.34
2022-08-01T01:09:53.775Z,100783.97
2022-08-01T01:12:30.526Z,100791.03
2022-08-01T01:15:09.651Z,100791.03
2022-08-01T01:17:51.532Z,100763.91
2022-08-01T01:20:19.908Z,100779.03
2022-08-01T01:23:03.050Z,100786.34
2022-08-01T01:25:38.622Z,100791.03
2022-08-01T01:28:13.985Z,100787.31
2022-08-01T01:30:42.778Z,100776.50
2022-08-01T01:33:11.582Z,100721.22
2022-08-01T01:35:44.231Z,100799.13
2022-08-01T01:38:19.147Z,100758.50
2022-08-01T01:40:47.174Z,100790.69
2022-08-01T01:43:16.069Z,100786.00
2022-08-01T01:45:43.472Z,100797.00
2022-08-01T01:48:11.611Z,100797.06
2022-08-01T01:50:38.594Z,100802.53
2022-08-01T01:53:07.283Z,100760.69
2022-08-01T01:55:49.827Z,100761.44
2022-08-01T01:58:17.363Z,100776.88
2022-08-01T02:00:45.552Z,100786.75
2022-08-01T02:03:13.521Z,100788.13
2022-08-01T02:05:40.886Z,100798.69
2022-08-01T02:08:09.143Z,100807.13
2022-08-01T02:10:36.198Z,100809.78
2022-08-01T02:13:04.996Z,100776.50
2022-08-01T02:15:32.618Z,100801.19
2022-08-01T02:17:59.602Z,100783.56
2022-08-01T02:20:28.324Z,100788.34
2022-08-01T02:22:58.995Z,100792.97
2022-08-01T02:25:33.642Z,100798.19
2022-08-01T02:28:02.659Z,100796.25
2022-08-01T02:30:33.659Z,100787.84
2022-08-01T02:33:04.522Z,100755.13
2022-08-01T02:35:33.591Z,100798.94
2022-08-01T02:38:01.700Z,100798.47
2022-08-01T02:40:29.659Z,100793.78
2022-08-01T02:42:57.278Z,100779.09
2022-08-01T02:45:26.409Z,100761.13
2022-08-01T02:47:56.915Z,100800.09
2022-08-01T02:50:25.000Z,100762.13
2022-08-01T02:52:52.577Z,100807.13
2022-08-01T02:55:20.510Z,100794.78
2022-08-01T02:57:52.207Z,100814.53
2022-08-01T03:00:25.011Z,100774.66
2022-08-01T03:02:52.660Z,100764.50
2022-08-01T03:05:19.517Z,100747.56
2022-08-01T03:07:48.576Z,100810.63
2022-08-01T03:10:15.796Z,100778.72
2022-08-01T03:12:43.103Z,100811.66
2022-08-01T03:15:13.556Z,100814.25
2022-08-01T03:17:42.053Z,100799.69
2022-08-01T03:20:09.730Z,100818.38
2022-08-01T03:22:37.860Z,100816.44
2022-08-01T03:25:05.466Z,100789.69
2022-08-01T03:27:32.164Z,100765.28
2022-08-01T03:29:59.336Z,100769.41
2022-08-01T03:32:26.947Z,100812.13
2022-08-01T03:34:53.615Z,100806.63
2022-08-01T03:37:25.953Z,100821.03
2022-08-01T03:39:59.932Z,100817.44
2022-08-01T03:42:35.252Z,100814.63
2022-08-01T03:45:13.279Z,100816.38
2022-08-01T03:47:44.951Z,100819.63
2022-08-01T03:50:13.217Z,100798.69
2022-08-01T03:52:40.792Z,100791.13
2022-08-01T03:55:08.449Z,100816.03
2022-08-01T03:57:36.779Z,100794.97
2022-08-01T04:00:10.196Z,100829.81
2022-08-01T04:02:37.547Z,100821.41
2022-08-01T04:05:04.762Z,100824.06
2022-08-01T04:07:33.108Z,100809.19
2022-08-01T04:09:59.882Z,100798.28
2022-08-01T04:12:26.411Z,100783.63
2022-08-01T04:14:52.993Z,100775.84
2022-08-01T04:17:19.862Z,100839.47
2022-08-01T04:19:46.845Z,100797.69
2022-08-01T04:22:16.496Z,100834.13
2022-08-01T04:24:54.542Z,100830.22
2022-08-01T04:27:50.307Z,100798.53
2022-08-01T04:30:24.251Z,100787.41
2022-08-01T04:32:51.624Z,100842.97
2022-08-01T04:35:23.062Z,100837.03
2022-08-01T04:38:06.397Z,100850.19
2022-08-01T04:40:33.523Z,100820.34
2022-08-01T04:43:01.280Z,100826.41
2022-08-01T04:45:28.083Z,100853.94
2022-08-01T04:47:55.365Z,100838.97
2022-08-01T04:50:25.403Z,100841.91
2022-08-01T04:52:52.556Z,100863.03
2022-08-01T04:55:19.427Z,100859.44
2022-08-01T04:57:47.526Z,100853.78
2022-08-01T05:00:15.049Z,100867.28
2022-08-01T05:02:41.598Z,100839.84
2022-08-01T05:05:08.665Z,100863.84
2022-08-01T05:07:45.087Z,100820.81
2022-08-01T05:10:12.224Z,100817.72
2022-08-01T05:12:38.793Z,100874.81
2022-08-01T05:15:10.602Z,100873.94
2022-08-01T05:17:43.181Z,100876.34
2022-08-01T05:20:10.850Z,100870.31
2022-08-01T05:22:37.643Z,100879.34
2022-08-01T05:25:05.913Z,100861.19
2022-08-01T05:27:32.948Z,100884.47
2022-08-01T05:30:00.458Z,100880.44
2022-08-01T05:32:27.034Z,100866.41
2022-08-01T05:34:53.698Z,100886.25
2022-08-01T05:37:20.484Z,100878.63
2022-08-01T05:39:47.033Z,100882.66
2022-08-01T05:42:13.541Z,100892.44
2022-08-01T05:44:40.117Z,100874.91
2022-08-01T05:47:06.840Z,100894.22
2022-08-01T05:49:33.438Z,100892.34
2022-08-01T05:52:01.994Z,100872.28
2022-08-01T05:54:29.055Z,100899.13
2022-08-01T05:57:00.440Z,100905.50
2022-08-01T05:59:27.554Z,100870.38
2022-08-01T06:01:54.211Z,100886.09
2022-08-01T06:04:20.803Z,100879.53
2022-08-01T06:06:48.071Z,100909.84
2022-08-01T06:09:14.890Z,100872.66
2022-08-01T06:11:41.776Z,100894.69
2022-08-01T06:14:08.336Z,100885.50
2022-08-01T06:16:34.936Z,100916.50
2022-08-01T06:19:01.468Z,100917.88
2022-08-01T06:21:28.058Z,100918.22
2022-08-01T06:26:21.330Z,100891.31
2022-08-01T06:28:47.900Z,100920.75
2022-08-01T06:31:15.713Z,100914.41
2022-08-01T06:33:42.311Z,100925.09
2022-08-01T06:36:10.131Z,100918.38
2022-08-01T06:38:36.775Z,100882.78
2022-08-01T06:41:03.417Z,100917.25
2022-08-01T06:43:30.062Z,100905.59
2022-08-01T06:45:56.604Z,100903.22
2022-08-01T06:48:23.774Z,100916.16
2022-08-01T06:51:08.587Z,100919.28
2022-08-01T06:53:36.782Z,100912.59
2022-08-01T06:56:04.555Z,100913.56
2022-08-01T06:58:31.709Z,100910.13
2022-08-01T07:00:58.629Z,100915.00
2022-08-01T07:03:27.857Z,100912.19
2022-08-01T07:06:13.592Z,100850.78
2022-08-01T07:08:41.792Z,100893.91
2022-08-01T07:11:08.709Z,100874.22
2022-08-01T07:13:43.984Z,100903.75
2022-08-01T07:16:10.919Z,100898.47
2022-08-01T07:18:37.476Z,100887.56
2022-08-01T07:21:06.932Z,100864.28
2022-08-01T07:23:45.830Z,100847.28
2022-08-01T07:26:14.138Z,100904.81
2022-08-01T07:28:43.907Z,100867.06
2022-08-01T07:31:10.912Z,100908.13
2022-08-01T07:33:48.579Z,100907.28
2022-08-01T07:36:16.992Z,100857.53
2022-08-01T07:38:43.690Z,100887.47
2022-08-01T07:41:10.419Z,100902.66
2022-08-01T07:43:37.142Z,100891.41
2022-08-01T07:46:04.739Z,100917.97
2022-08-01T07:48:31.507Z,100888.41
2022-08-01T07:50:58.363Z,100875.75
2022-08-01T07:53:24.956Z,100864.06
2022-08-01T07:55:51.681Z,100895.56
2022-08-01T07:58:18.372Z,100872.59
2022-08-01T08:00:45.120Z,100909.31
2022-08-01T08:03:11.723Z,100893.88
2022-08-01T08:05:58.611Z,100914.38
2022-08-01T08:08:25.177Z,100877.84
2022-08-01T08:10:51.744Z,100904.63
2022-08-01T08:13:18.375Z,100917.19
2022-08-01T08:15:48.279Z,100920.22
2022-08-01T08:18:15.799Z,100919.19
2022-08-01T08:20:42.500Z,100918.56
2022-08-01T08:23:43.101Z,100926.53
2022-08-01T08:26:11.696Z,100909.13
2022-08-01T08:28:38.346Z,100892.34
2022-08-01T08:31:07.861Z,100931.00
2022-08-01T08:33:52.442Z,100887.56
2022-08-01T08:36:19.090Z,100917.88
2022-08-01T08:38:45.606Z,100916.94
2022-08-01T08:41:14.363Z,100943.00
2022-08-01T08:43:42.511Z,100928.16
2022-08-01T08:46:09.658Z,100899.69
2022-08-01T08:48:36.339Z,100940.75
2022-08-01T08:51:03.126Z,100931.03
2022-08-01T08:53:34.746Z,100944.91
2022-08-01T08:56:02.145Z,100918.47
2022-08-01T08:58:31.870Z,100915.25
2022-08-01T09:00:59.053Z,100929.59
2022-08-01T09:03:26.011Z,100938.81
2022-08-01T09:05:52.856Z,100939.81
2022-08-01T09:08:19.494Z,100921.97
2022-08-01T09:10:46.350Z,100916.13
2022-08-01T09:13:14.541Z,100924.06
2022-08-01T09:15:48.079Z,100945.19
2022-08-01T09:18:35.043Z,100949.09
2022-08-01T09:21:15.437Z,100952.84
2022-08-01T09:23:53.658Z,100953.03
2022-08-01T09:26:41.747Z,100955.72
2022-08-01T09:29:10.341Z,100952.81
2022-08-01T09:31:42.799Z,100944.31
2022-08-01T09:34:15.612Z,100949.84
2022-08-01T09:36:56.991Z,100946.34
2022-08-01T09:39:31.715Z,100874.56
2022-08-01T09:42:00.812Z,100950.69
2022-08-01T09:44:44.099Z,100938.63
2022-08-01T09:47:15.561Z,100924.47
2022-08-01T09:49:49.786Z,100927.56
2022-08-01T09:52:25.755Z,100937.09
2022-08-01T09:54:57.965Z,100936.94
2022-08-01T09:57:25.569Z,100931.16
2022-08-01T09:59:59.119Z,100931.53
2022-08-01T10:02:38.832Z,100931.94
2022-08-01T10:05:08.961Z,100933.03
2022-08-01T10:07:43.036Z,100933.97
2022-08-01T10:10:16.083Z,100927.06
2022-08-01T10:12:45.490Z,100917.06
2022-08-01T10:15:18.077Z,100935.56
2022-08-01T10:17:57.094Z,100933.00
2022-08-01T10:20:32.124Z,100887.75
2022-08-01T10:23:02.046Z,100937.56
2022-08-01T10:25:42.487Z,100938.13
2022-08-01T10:28:23.755Z,100943.22
2022-08-01T10:30:52.037Z,100935.38
2022-08-01T10:33:20.048Z,100941.94
2022-08-01T10:36:08.466Z,100936.44
2022-08-01T10:38:36.278Z,100933.56
2022-08-01T10:41:06.287Z,100943.94
2022-08-01T10:43:35.295Z,100923.97
2022-08-01T10:46:03.519Z,100946.41
2022-08-01T10:48:44.362Z,100954.50
2022-08-01T10:51:18.542Z,100934.69
2022-08-01T10:53:54.437Z,100955.94
2022-08-01T10:56:27.116Z,100952.66
2022-08-01T10:59:06.240Z,100966.22
2022-08-01T11:01:34.230Z,100962.69
2022-08-01T11:04:16.026Z,100966.44
2022-08-01T11:07:05.073Z,100946.88
2022-08-01T11:09:44.333Z,100962.53
2022-08-01T11:12:24.405Z,100961.47
2022-08-01T11:15:02.769Z,100960.34
2022-08-01T11:17:42.509Z,100955.66
2022-08-01T11:20:13.912Z,100955.81
2022-08-01T11:23:16.668Z,100951.44
2022-08-01T11:26:05.523Z,100959.56
2022-08-01T11:28:40.591Z,100952.88
2022-08-01T11:31:14.473Z,100976.88
2022-08-01T11:33:45.832Z,100976.91
2022-08-01T11:36:55.433Z,100981.94
2022-08-01T11:39:13.109Z,100974.34
2022-08-01T11:41:41.672Z,100971.97
2022-08-01T11:44:15.184Z,100957.78
2022-08-01T11:47:09.959Z,100965.94
2022-08-01T11:49:48.921Z,100964.38
2022-08-01T11:52:18.287Z,100969.38
2022-08-01T11:54:46.343Z,100961.59
2022-08-01T11:57:22.920Z,100967.69
2022-08-01T12:00:03.547Z,100966.75
2022-08-01T12:02:35.723Z,100963.34
2022-08-01T12:05:08.240Z,100974.53
2022-08-01T12:07:36.736Z,100977.56
2022-08-01T12:10:17.453Z,100958.16
2022-08-01T12:12:49.630Z,100964.50
2022-08-01T12:15:17.010Z,100983.22
2022-08-01T12:17:47.025Z,100979.31
2022-08-01T12:20:36.827Z,100956.25
2022-08-01T12:23:08.399Z,100985.38
2022-08-01T12:25:36.337Z,100962.50
2022-08-01T12:28:05.204Z,100985.31
2022-08-01T12:30:36.014Z,100939.72
2022-08-01T12:33:04.785Z,100961.84
2022-08-01T12:35:32.408Z,100979.72
2022-08-01T12:38:05.153Z,100976.50
2022-08-01T12:40:33.939Z,100992.84
2022-08-01T12:43:05.533Z,100947.28
2022-08-01T12:45:38.164Z,100988.97
2022-08-01T12:48:08.845Z,100998.44
2022-08-01T12:50:39.071Z,100965.22
2022-08-01T12:53:07.093Z,100978.31
2022-08-01T12:55:34.807Z,100967.81
2022-08-01T12:58:16.043Z,100974.31
2022-08-01T13:00:45.390Z,100992.47
2022-08-01T13:03:20.118Z,100968.13
2022-08-01T13:05:46.627Z,100987.13
2022-08-01T13:08:24.925Z,100988.03
2022-08-01T13:10:54.823Z,100979.81
2022-08-01T13:13:28.368Z,100981.75
2022-08-01T13:16:05.276Z,100941.25
2022-08-01T13:18:33.657Z,100975.22
2022-08-01T13:21:52.625Z,100986.31
2022-08-01T13:24:30.669Z,100965.75
2022-08-01T13:27:04.101Z,100973.28
2022-08-01T13:29:33.813Z,100974.22
2022-08-01T13:32:12.991Z,100968.44
2022-08-01T13:35:09.739Z,100988.00
2022-08-01T13:37:39.034Z,100984.59
2022-08-01T13:40:07.457Z,100972.00
2022-08-01T13:42:34.835Z,100990.53
2022-08-01T13:45:02.911Z,100962.66
2022-08-01T13:47:31.291Z,100972.91
2022-08-01T13:50:02.704Z,100987.06
2022-08-01T13:52:30.080Z,100990.34
2022-08-01T13:54:56.656Z,100997.22
2022-08-01T13:57:23.245Z,100975.97
2022-08-01T13:59:49.915Z,100964.47
2022-08-01T14:02:16.462Z,100986.75
2022-08-01T14:04:43.238Z,100997.09
2022-08-01T14:07:14.660Z,100978.53
2022-08-01T14:09:45.121Z,100953.69
2022-08-01T14:12:28.105Z,100980.66
2022-08-01T14:14:54.711Z,100984.22
2022-08-01T14:17:21.263Z,100991.31
2022-08-01T14:19:48.741Z,100993.28
2022-08-01T14:22:15.335Z,100991.06
2022-08-01T14:24:41.862Z,100965.81
2022-08-01T14:27:08.467Z,100997.78
2022-08-01T14:30:02.868Z,101000.22
2022-08-01T14:32:24.427Z,100985.53
2022-08-01T14:34:55.277Z,100986.53
2022-08-01T14:37:21.820Z,100993.50
2022-08-01T14:39:53.544Z,100977.06
2022-08-01T14:42:21.318Z,100987.81
2022-08-01T14:44:49.985Z,100989.09
2022-08-01T14:47:22.116Z,100986.09
2022-08-01T14:49:49.653Z,100987.69
2022-08-01T14:52:16.244Z,100970.06
2022-08-01T14:54:42.810Z,100985.78
2022-08-01T14:57:09.563Z,100960.50
2022-08-01T14:59:36.956Z,100964.66
2022-08-01T15:02:04.026Z,100978.13
2022-08-01T15:04:31.458Z,100962.59
2022-08-01T15:06:58.089Z,100961.03
2022-08-01T15:09:25.367Z,100967.59
2022-08-01T15:11:51.913Z,100961.81
2022-08-01T15:14:36.991Z,100948.59
2022-08-01T15:17:03.743Z,100987.06
2022-08-01T15:19:30.284Z,100976.88
2022-08-01T15:21:56.935Z,100975.63
2022-08-01T15:24:23.445Z,100990.25
2022-08-01T15:26:49.991Z,100972.59
2022-08-01T15:29:18.131Z,100962.50
2022-08-01T15:31:45.157Z,100966.97
2022-08-01T15:34:11.863Z,100926.22
2022-08-01T15:36:41.867Z,100980.75
2022-08-01T15:39:09.665Z,100975.25
2022-08-01T15:41:36.302Z,100958.03
2022-08-01T15:44:03.111Z,100964.91
2022-08-01T15:46:29.692Z,100977.22
2022-08-01T15:48:56.308Z,100978.53
2022-08-01T15:51:23.435Z,100984.16
2022-08-01T15:53:49.950Z,100981.41
2022-08-01T15:56:16.705Z,100956.91
2022-08-01T15:58:43.229Z,100986.03
2022-08-01T16:01:09.781Z,100953.53
2022-08-01T16:03:36.296Z,100961.72
2022-08-01T16:06:02.887Z,100988.09
2022-08-01T16:08:29.416Z,100987.00
2022-08-01T16:10:56.188Z,100980.97
2022-08-01T16:13:22.728Z,100990.66
2022-08-01T16:15:49.259Z,100985.31
2022-08-01T16:18:16.118Z,100976.56
2022-08-01T16:20:45.724Z,100994.06
2022-08-01T16:23:16.164Z,100987.56
2022-08-01T16:25:44.619Z,100995.53
2022-08-01T16:28:11.945Z,100984.13
2022-08-01T16:30:48.759Z,100989.06
2022-08-01T16:33:43.496Z,100997.00
2022-08-01T16:36:16.680Z,101000.63
2022-08-01T16:38:44.284Z,100994.78
2022-08-01T16:41:20.182Z,100963.75
2022-08-01T16:43:54.393Z,100994.84
2022-08-01T16:46:25.453Z,100980.81
2022-08-01T16:48:53.008Z,100963.69
2022-08-01T16:51:20.001Z,100983.53
2022-08-01T16:53:46.510Z,100994.44
2022-08-01T16:56:13.030Z,100979.41
2022-08-01T16:58:39.561Z,100964.53
2022-08-01T17:01:59.080Z,100944.09
2022-08-01T17:04:02.030Z,100991.25
2022-08-01T17:06:29.882Z,101004.13
2022-08-01T17:08:56.436Z,100979.63
2022-08-01T17:11:22.996Z,100998.97
2022-08-01T17:13:49.625Z,100998.72
2022-08-01T17:16:16.139Z,100995.56
2022-08-01T17:18:42.700Z,100972.44
2022-08-01T17:21:09.364Z,100961.13
2022-08-01T17:23:36.108Z,100995.13
2022-08-01T17:26:02.896Z,100981.56
2022-08-01T17:28:29.513Z,100999.75
2022-08-01T17:30:56.186Z,100997.97
2022-08-01T17:33:22.673Z,101002.72
2022-08-01T17:35:49.264Z,100998.28
2022-08-01T17:38:15.808Z,101004.56
2022-08-01T17:40:43.684Z,100959.94
2022-08-01T17:43:10.269Z,101004.88
2022-08-01T17:45:50.256Z,101003.44
2022-08-01T17:48:18.883Z,100982.81
2022-08-01T17:50:47.016Z,100995.47
2022-08-01T17:53:15.056Z,101004.06
2022-08-01T17:55:53.684Z,101012.94
2022-08-01T17:58:49.197Z,101004.13
2022-08-01T18:01:11.522Z,101002.03
2022-08-01T18:03:41.302Z,101010.78
2022-08-01T18:06:08.921Z,101013.88
2022-08-01T18:08:36.045Z,101011.50
2022-08-01T18:11:02.694Z,101013.03
2022-08-01T18:13:29.881Z,100990.09
2022-08-01T18:15:57.066Z,101010.84
2022-08-01T18:18:33.139Z,101004.19
2022-08-01T18:21:00.394Z,100998.03
2022-08-01T18:23:26.976Z,101013.72
2022-08-01T18:25:53.928Z,100980.34
2022-08-01T18:28:32.805Z,101004.66
2022-08-01T18:31:00.871Z,101011.53
2022-08-01T18:33:27.863Z,100983.34
2022-08-01T18:35:56.112Z,101028.56
2022-08-01T18:38:29.286Z,100991.00
2022-08-01T18:40:56.161Z,101013.47
2022-08-01T18:43:22.739Z,100994.97
2022-08-01T18:45:49.289Z,101028.38
2022-08-01T18:48:15.891Z,101020.44
2022-08-01T18:50:42.567Z,100996.25
2022-08-01T18:53:09.189Z,101026.56
2022-08-01T18:55:35.911Z,101024.25
2022-08-01T18:58:02.502Z,101025.09
2022-08-01T19:00:29.075Z,101039.97
2022-08-01T19:02:55.701Z,101031.22
2022-08-01T19:05:22.367Z,100997.97
2022-08-01T19:08:05.337Z,101037.31
2022-08-01T19:10:35.078Z,101026.41
2022-08-01T19:13:02.318Z,101042.28
2022-08-01T19:15:29.605Z,101051.69
2022-08-01T19:17:56.398Z,101058.38
2022-08-01T19:20:23.177Z,101051.69
2022-08-01T19:22:50.047Z,101032.41
2022-08-01T19:25:16.719Z,101048.25
2022-08-01T19:27:48.413Z,101073.16
2022-08-01T19:30:16.230Z,101066.88
2022-08-01T19:32:44.947Z,101074.81
2022-08-01T19:35:13.586Z,101081.94
2022-08-01T19:37:45.626Z,101082.78
2022-08-01T19:40:26.809Z,101046.72
2022-08-01T19:42:58.938Z,101086.94
2022-08-01T19:45:29.467Z,101093.09
2022-08-01T19:47:57.531Z,101088.09
2022-08-01T19:50:28.682Z,101093.53
2022-08-01T19:52:56.210Z,101099.59
2022-08-01T19:55:27.289Z,101054.59
2022-08-01T20:00:42.631Z,101069.44
2022-08-01T20:03:09.989Z,101097.88
2022-08-01T20:05:37.290Z,101037.34
2022-08-01T20:08:06.559Z,101100.72
2022-08-01T20:10:33.427Z,101103.03
2022-08-01T20:13:00.552Z,101053.03
2022-08-01T20:15:27.477Z,101096.84
2022-08-01T20:17:57.741Z,101096.22
2022-08-01T20:20:24.635Z,101101.41
2022-08-01T20:22:53.732Z,101099.34
2022-08-01T20:25:21.397Z,101091.56
2022-08-01T20:27:48.091Z,101072.28
2022-08-01T20:30:14.674Z,101106.59
2022-08-01T20:32:41.846Z,101107.31
2022-08-01T20:35:09.362Z,101107.09
2022-08-01T20:38:06.840Z,101107.72
2022-08-01T20:40:26.961Z,101112.44
2022-08-01T20:42:54.284Z,101108.44
2022-08-01T20:45:22.662Z,101108.06
2022-08-01T20:47:50.670Z,101118.44
2022-08-01T20:50:52.889Z,101118.44
2022-08-01T20:53:24.747Z,101081.31
2022-08-01T20:56:02.027Z,101123.81
2022-08-01T20:58:40.930Z,101120.91
2022-08-01T21:01:09.464Z,101084.63
2022-08-01T21:04:08.530Z,101123.66
2022-08-01T21:06:41.835Z,101080.47
2022-08-01T21:09:10.496Z,101063.31
2022-08-01T21:11:44.814Z,101112.06
2022-08-01T21:14:14.363Z,101109.34
2022-08-01T21:16:46.736Z,101094.84
2022-08-01T21:19:22.095Z,101127.66
2022-08-01T21:21:57.625Z,101123.56
2022-08-01T21:24:26.926Z,101108.06
2022-08-01T21:26:53.580Z,101109.56
2022-08-01T21:29:22.374Z,101091.47
2022-08-01T21:32:08.859Z,101079.94
2022-08-01T21:34:38.256Z,101113.13
2022-08-01T21:37:07.803Z,101088.88
2022-08-01T21:39:37.889Z,101096.50
2022-08-01T21:42:08.968Z,101098.38
2022-08-01T21:44:38.752Z,101080.19
2022-08-01T21:47:06.459Z,101075.44
2022-08-01T21:49:38.803Z,101107.59
2022-08-01T21:52:22.562Z,101119.72
2022-08-01T21:55:10.629Z,101111.53
2022-08-01T21:57:37.576Z,101102.38
2022-08-01T22:00:24.916Z,101106.47
2022-08-01T22:03:17.989Z,101108.03
2022-08-01T22:05:50.882Z,101105.84
2022-08-01T22:08:29.061Z,101117.31
2022-08-01T22:10:58.895Z,101089.03
2022-08-01T22:13:25.607Z,101107.03
2022-08-01T22:15:55.971Z,101097.97
2022-08-01T22:18:22.822Z,101123.34
2022-08-01T22:20:49.431Z,101101.50
2022-08-01T22:23:16.579Z,101081.97
2022-08-01T22:25:43.963Z,101094.56
2022-08-01T22:28:15.723Z,101082.66
2022-08-01T22:30:42.943Z,101126.06
2022-08-01T22:33:17.170Z,101115.50
2022-08-01T22:35:49.908Z,101127.50
2022-08-01T22:38:17.984Z,101114.16
2022-08-01T22:41:01.595Z,101114.75
2022-08-01T22:44:10.145Z,101125.84
2022-08-01T22:46:58.123Z,101122.91
2022-08-01T22:49:38.545Z,101108.75
2022-08-01T22:52:13.041Z,101095.09
2022-08-01T22:54:41.558Z,101098.50
2022-08-01T22:57:16.652Z,101092.47
2022-08-01T22:59:53.695Z,101136.84
2022-08-01T23:02:20.844Z,101079.38
2022-08-01T23:04:49.487Z,101147.84
2022-08-01T23:07:20.996Z,101091.44
2022-08-01T23:09:54.361Z,101153.34
2022-08-01T23:12:24.454Z,101110.75
2022-08-01T23:14:58.482Z,101140.91
2022-08-01T23:17:29.269Z,101146.97
2022-08-01T23:20:01.954Z,101142.16
2022-08-01T23:22:34.578Z,101141.38
2022-08-01T23:25:06.696Z,101117.69
2022-08-01T23:27:51.540Z,101152.75
2022-08-01T23:30:27.027Z,101145.81
2022-08-01T23:32:54.276Z,101100.69
2022-08-01T23:35:20.978Z,101134.53
2022-08-01T23:37:50.841Z,101139.91
2022-08-01T23:40:17.953Z,101137.88
2022-08-01T23:42:44.581Z,101113.09
2022-08-01T23:45:11.569Z,101114.63
2022-08-01T23:47:38.214Z,101139.97
2022-08-01T23:50:05.361Z,101107.88
2022-08-01T23:52:32.437Z,101126.56
2022-08-01T23:55:10.154Z,101102.53
2022-08-01T23:57:42.059Z,101105.72
